createdAt,value
2023-04-18T00:00:44.957Z,9.60
2023-04-18T00:03:15.904Z,9.60
2023-04-18T00:05:48.109Z,9.60
2023-04-18T00:08:15.188Z,9.60
2023-04-18T00:10:42.358Z,9.60
2023-04-18T00:13:10.224Z,9.60
2023-04-18T00:15:37.182Z,9.70
2023-04-18T00:18:06.027Z,9.70
2023-04-18T00:20:33.530Z,9.60
2023-04-18T00:23:00.844Z,9.60
2023-04-18T00:25:27.849Z,9.60
2023-04-18T00:27:54.783Z,9.60
2023-04-18T00:30:21.679Z,9.50
2023-04-18T00:32:48.767Z,9.50
2023-04-18T00:35:15.678Z,9.50
2023-04-18T00:37:42.588Z,9.50
2023-04-18T00:40:10.130Z,9.50
2023-04-18T00:42:37.042Z,9.60
2023-04-18T00:45:04.202Z,9.60
2023-04-18T00:47:31.191Z,9.60
2023-04-18T00:49:58.457Z,9.60
2023-04-18T00:52:27.139Z,9.60
2023-04-18T00:54:54.629Z,9.60
2023-04-18T00:57:22.252Z,9.60
2023-04-18T00:59:49.439Z,9.60
2023-04-18T01:02:17.452Z,9.60
2023-04-18T01:04:44.580Z,9.60
2023-04-18T01:07:11.778Z,9.60
2023-04-18T01:09:38.700Z,9.60
2023-04-18T01:12:06.242Z,9.70
2023-04-18T01:14:33.083Z,9.60
2023-04-18T01:17:00.104Z,9.60
2023-04-18T01:19:27.122Z,9.60
2023-04-18T01:21:54.388Z,9.60
2023-04-18T01:24:24.629Z,9.60
2023-04-18T01:26:51.745Z,9.50
2023-04-18T01:29:18.633Z,9.50
2023-04-18T01:31:46.140Z,9.50
2023-04-18T01:34:13.497Z,9.60
2023-04-18T01:36:40.942Z,9.50
2023-04-18T01:39:07.902Z,9.50
2023-04-18T01:41:34.815Z,9.50
2023-04-18T01:44:01.757Z,9.60
2023-04-18T01:46:28.827Z,9.60
2023-04-18T01:48:56.360Z,9.60
2023-04-18T01:51:23.286Z,9.60
2023-04-18T01:53:50.190Z,9.60
2023-04-18T01:56:17.203Z,9.60
2023-04-18T01:58:44.172Z,9.60
2023-04-18T02:01:11.119Z,9.60
2023-04-18T02:03:38.220Z,9.60
2023-04-18T02:06:05.530Z,9.60
2023-04-18T02:08:35.599Z,9.60
2023-04-18T02:11:02.646Z,9.50
2023-04-18T02:13:29.630Z,9.50
2023-04-18T02:15:56.548Z,9.50
2023-04-18T02:18:24.998Z,9.40
2023-04-18T02:20:52.278Z,9.50
2023-04-18T02:23:19.297Z,9.50
2023-04-18T02:25:46.131Z,9.50
2023-04-18T02:28:13.093Z,9.50
2023-04-18T02:30:39.962Z,9.50
2023-04-18T02:33:06.937Z,9.60
2023-04-18T02:35:34.115Z,9.50
2023-04-18T02:38:01.059Z,9.50
2023-04-18T02:40:27.969Z,9.50
2023-04-18T02:42:54.827Z,9.50
2023-04-18T02:45:21.801Z,9.50
2023-04-18T02:47:55.455Z,9.50
2023-04-18T02:50:24.233Z,9.60
2023-04-18T02:52:51.185Z,9.60
2023-04-18T02:55:18.203Z,9.60
2023-04-18T02:57:45.090Z,9.70
2023-04-18T03:00:13.695Z,9.70
2023-04-18T03:02:41.012Z,9.70
2023-04-18T03:05:08.298Z,9.70
2023-04-18T03:07:35.432Z,9.70
2023-04-18T03:10:02.410Z,9.70
2023-04-18T03:12:29.365Z,9.70
2023-04-18T03:14:56.148Z,9.80
2023-04-18T03:17:23.168Z,9.80
2023-04-18T03:19:50.160Z,9.80
2023-04-18T03:22:17.111Z,9.70
2023-04-18T03:24:44.175Z,9.50
2023-04-18T03:27:11.595Z,9.50
2023-04-18T03:29:38.569Z,9.50
2023-04-18T03:32:05.786Z,9.60
2023-04-18T03:34:32.702Z,9.50
2023-04-18T03:36:59.661Z,9.50
2023-04-18T03:39:27.002Z,9.50
2023-04-18T03:41:54.002Z,9.60
2023-04-18T03:44:20.905Z,9.60
2023-04-18T03:46:47.780Z,9.60
2023-04-18T03:49:14.616Z,9.60
2023-04-18T03:51:47.877Z,9.40
2023-04-18T03:54:15.896Z,9.30
2023-04-18T03:56:43.061Z,9.30
2023-04-18T03:59:10.335Z,9.20
2023-04-18T04:01:37.603Z,9.20
2023-04-18T04:04:04.890Z,9.20
2023-04-18T04:06:32.224Z,9.20
2023-04-18T04:08:59.170Z,9.20
2023-04-18T04:11:26.287Z,9.20
2023-04-18T04:13:53.381Z,9.10
2023-04-18T04:16:20.437Z,9.00
2023-04-18T04:18:47.455Z,8.90
2023-04-18T04:21:14.252Z,8.90
2023-04-18T04:23:42.580Z,8.80
2023-04-18T04:26:09.564Z,8.70
2023-04-18T04:28:36.466Z,8.70
2023-04-18T04:31:06.432Z,8.60
2023-04-18T04:33:33.370Z,8.60
2023-04-18T04:36:01.321Z,8.60
2023-04-18T04:38:31.162Z,8.50
2023-04-18T04:40:58.551Z,8.40
2023-04-18T04:43:26.073Z,8.40
2023-04-18T04:45:53.521Z,8.30
2023-04-18T04:48:22.255Z,8.30
2023-04-18T04:50:53.351Z,8.30
2023-04-18T04:53:20.202Z,8.30
2023-04-18T04:55:47.234Z,8.30
2023-04-18T04:58:14.090Z,8.20
2023-04-18T05:00:41.146Z,8.20
2023-04-18T05:03:08.401Z,8.30
2023-04-18T05:05:35.797Z,8.30
2023-04-18T05:08:03.141Z,8.40
2023-04-18T05:10:30.574Z,8.30
2023-04-18T05:12:57.490Z,8.30
2023-04-18T05:15:25.189Z,8.20
2023-04-18T05:17:52.301Z,8.10
2023-04-18T05:20:19.238Z,8.10
2023-04-18T05:22:46.080Z,8.20
2023-04-18T05:25:13.023Z,8.20
2023-04-18T05:27:39.998Z,8.20
2023-04-18T05:30:07.536Z,8.20
2023-04-18T05:32:34.712Z,8.20
2023-04-18T05:35:01.692Z,8.20
2023-04-18T05:37:28.674Z,8.10
2023-04-18T05:39:55.750Z,8.10
2023-04-18T05:42:22.770Z,8.10
2023-04-18T05:44:50.594Z,8.10
2023-04-18T05:47:17.796Z,8.20
2023-04-18T05:49:44.825Z,8.20
2023-04-18T05:52:12.003Z,8.20
2023-04-18T05:54:39.045Z,8.10
2023-04-18T05:57:06.264Z,8.20
2023-04-18T05:59:33.178Z,8.20
2023-04-18T06:02:00.253Z,8.30
2023-04-18T06:04:27.303Z,8.40
2023-04-18T06:06:54.283Z,8.40
2023-04-18T06:09:21.114Z,8.40
2023-04-18T06:11:47.995Z,8.50
2023-04-18T06:14:15.112Z,8.50
2023-04-18T06:16:42.233Z,8.50
2023-04-18T06:19:09.027Z,8.50
2023-04-18T06:21:36.150Z,8.50
2023-04-18T06:24:03.003Z,8.50
2023-04-18T06:26:32.055Z,8.50
2023-04-18T06:28:59.160Z,8.50
2023-04-18T06:31:26.154Z,8.50
2023-04-18T06:33:53.163Z,8.50
2023-04-18T06:36:20.152Z,8.60
2023-04-18T06:38:47.029Z,8.60
2023-04-18T06:41:14.881Z,8.60
2023-04-18T06:43:52.147Z,8.60
2023-04-18T06:46:28.822Z,8.70
2023-04-18T06:48:55.893Z,8.70
2023-04-18T06:51:22.767Z,8.80
2023-04-18T06:53:52.723Z,8.90
2023-04-18T06:56:20.730Z,9.00
2023-04-18T06:58:47.918Z,8.90
2023-04-18T07:01:14.788Z,8.90
2023-04-18T07:03:41.864Z,8.90
2023-04-18T07:06:10.862Z,9.10
2023-04-18T07:08:38.006Z,9.20
2023-04-18T07:11:06.288Z,9.20
2023-04-18T07:13:33.253Z,9.30
2023-04-18T07:16:00.803Z,9.20
2023-04-18T07:18:37.326Z,9.30
2023-04-18T07:21:07.667Z,9.50
2023-04-18T07:23:35.249Z,9.50
2023-04-18T07:26:03.218Z,9.50
2023-04-18T07:28:31.287Z,9.50
2023-04-18T07:30:58.505Z,9.60
2023-04-18T07:33:25.613Z,9.60
2023-04-18T07:35:53.172Z,9.70
2023-04-18T07:38:22.278Z,9.70
2023-04-18T07:40:59.134Z,9.70
2023-04-18T07:43:26.263Z,9.70
2023-04-18T07:45:53.331Z,9.80
2023-04-18T07:48:22.639Z,9.70
2023-04-18T07:50:49.817Z,9.80
2023-04-18T07:53:16.737Z,9.90
2023-04-18T07:55:43.665Z,10.10
2023-04-18T07:58:10.629Z,10.20
2023-04-18T08:00:39.232Z,10.20
2023-04-18T08:03:11.134Z,10.30
2023-04-18T08:05:44.132Z,10.30
2023-04-18T08:08:11.545Z,10.40
2023-04-18T08:10:38.395Z,10.50
2023-04-18T08:13:06.354Z,10.50
2023-04-18T08:15:33.248Z,10.60
2023-04-18T08:18:00.479Z,10.70
2023-04-18T08:20:27.711Z,10.70
2023-04-18T08:23:04.683Z,10.80
2023-04-18T08:25:36.493Z,10.80
2023-04-18T08:28:04.154Z,10.90
2023-04-18T08:30:31.150Z,11.00
2023-04-18T08:32:58.946Z,11.10
2023-04-18T08:35:26.004Z,11.00
2023-04-18T08:37:52.960Z,11.10
2023-04-18T08:40:20.123Z,11.20
2023-04-18T08:42:47.126Z,11.40
2023-04-18T08:45:14.340Z,11.50
2023-04-18T08:47:41.789Z,11.60
2023-04-18T08:50:09.664Z,11.60
2023-04-18T08:52:37.729Z,11.40
2023-04-18T08:55:05.397Z,11.40
2023-04-18T08:57:33.345Z,11.40
2023-04-18T09:00:08.929Z,11.40
2023-04-18T09:02:43.234Z,11.60
2023-04-18T09:05:14.304Z,11.70
2023-04-18T09:07:41.289Z,11.80
2023-04-18T09:10:08.344Z,12.10
2023-04-18T09:12:35.991Z,12.40
2023-04-18T09:15:10.670Z,12.50
2023-04-18T09:17:42.534Z,12.50
2023-04-18T09:20:12.696Z,12.40
2023-04-18T09:22:58.119Z,12.30
2023-04-18T09:25:26.081Z,12.10
2023-04-18T09:27:53.456Z,12.00
2023-04-18T09:30:39.728Z,11.90
2023-04-18T09:33:09.593Z,11.70
2023-04-18T09:35:37.158Z,11.60
2023-04-18T09:38:04.245Z,11.50
2023-04-18T09:40:31.231Z,11.50
2023-04-18T09:42:58.031Z,11.50
2023-04-18T09:45:25.363Z,11.50
2023-04-18T09:47:53.257Z,11.50
2023-04-18T09:50:20.893Z,11.50
2023-04-18T09:52:48.243Z,11.50
2023-04-18T09:55:16.713Z,11.50
2023-04-18T09:57:48.322Z,11.50
2023-04-18T10:00:26.808Z,11.40
2023-04-18T10:02:58.535Z,11.30
2023-04-18T10:05:35.386Z,11.30
2023-04-18T10:08:02.443Z,11.30
2023-04-18T10:10:29.323Z,11.50
2023-04-18T10:12:57.914Z,11.60
2023-04-18T10:15:26.509Z,11.70
2023-04-18T10:18:03.459Z,11.70
2023-04-18T10:20:32.792Z,11.60
2023-04-18T10:23:00.167Z,11.60
2023-04-18T10:25:47.589Z,11.50
2023-04-18T10:28:14.876Z,11.50
2023-04-18T10:30:41.644Z,11.60
2023-04-18T10:33:33.678Z,11.70
2023-04-18T10:36:09.849Z,11.80
2023-04-18T10:38:38.862Z,11.70
2023-04-18T10:41:25.257Z,11.70
2023-04-18T10:44:09.492Z,11.70
2023-04-18T10:46:37.125Z,11.70
2023-04-18T10:49:14.311Z,11.70
2023-04-18T10:51:41.374Z,11.90
2023-04-18T10:54:09.974Z,12.00
2023-04-18T10:56:36.881Z,11.90
2023-04-18T10:59:04.010Z,11.70
2023-04-18T11:01:33.055Z,11.50
2023-04-18T11:04:00.450Z,11.40
2023-04-18T11:06:29.092Z,11.30
2023-04-18T11:09:12.535Z,11.20
2023-04-18T11:11:39.667Z,11.30
2023-04-18T11:14:06.452Z,11.40
2023-04-18T11:16:33.896Z,11.40
2023-04-18T11:19:01.023Z,11.40
2023-04-18T11:21:31.579Z,11.30
2023-04-18T11:23:58.529Z,11.30
2023-04-18T11:26:26.598Z,11.50
2023-04-18T11:28:56.705Z,11.90
2023-04-18T11:31:26.769Z,12.40
2023-04-18T11:33:56.464Z,12.50
2023-04-18T11:36:23.274Z,12.30
2023-04-18T11:38:50.061Z,12.10
2023-04-18T11:41:16.854Z,12.10
2023-04-18T11:43:44.968Z,11.90
2023-04-18T11:46:12.483Z,11.80
2023-04-18T11:48:42.688Z,11.80
2023-04-18T11:51:34.323Z,11.70
2023-04-18T11:54:01.355Z,11.60
2023-04-18T11:56:28.274Z,11.60
2023-04-18T11:58:55.074Z,11.70
2023-04-18T12:01:23.284Z,11.70
2023-04-18T12:04:06.685Z,11.70
2023-04-18T12:06:50.329Z,11.70
2023-04-18T12:09:17.409Z,11.60
2023-04-18T12:11:44.375Z,11.40
2023-04-18T12:14:21.775Z,11.20
2023-04-18T12:16:51.872Z,11.20
2023-04-18T12:19:20.890Z,11.10
2023-04-18T12:21:57.890Z,11.20
2023-04-18T12:24:25.325Z,11.20
2023-04-18T12:26:52.856Z,11.10
2023-04-18T12:29:19.696Z,11.20
2023-04-18T12:31:47.495Z,11.30
2023-04-18T12:34:14.771Z,11.40
2023-04-18T12:36:42.289Z,11.60
2023-04-18T12:39:10.229Z,11.70
2023-04-18T12:41:37.285Z,11.90
2023-04-18T12:44:04.372Z,11.80
2023-04-18T12:46:31.540Z,11.80
2023-04-18T12:48:58.571Z,11.60
2023-04-18T12:51:26.610Z,11.30
2023-04-18T12:53:53.559Z,11.20
2023-04-18T12:56:21.130Z,11.20
2023-04-18T12:58:47.956Z,11.20
2023-04-18T13:01:15.272Z,11.10
2023-04-18T13:03:42.280Z,10.90
2023-04-18T13:06:09.404Z,10.90
2023-04-18T13:08:37.669Z,10.90
2023-04-18T13:11:04.618Z,10.90
2023-04-18T13:13:31.904Z,10.90
2023-04-18T13:15:59.905Z,10.80
2023-04-18T13:18:27.190Z,10.80
2023-04-18T13:20:53.988Z,10.80
2023-04-18T13:23:20.884Z,11.00
2023-04-18T13:25:47.662Z,11.00
2023-04-18T13:28:14.531Z,11.10
2023-04-18T13:30:41.391Z,11.00
2023-04-18T13:33:08.554Z,11.00
2023-04-18T13:35:36.335Z,10.90
2023-04-18T13:38:03.205Z,10.90
2023-04-18T13:40:31.482Z,10.80
2023-04-18T13:42:58.321Z,10.90
2023-04-18T13:45:25.224Z,11.00
2023-04-18T13:47:52.092Z,11.10
2023-04-18T13:50:19.058Z,11.30
2023-04-18T13:52:48.109Z,11.50
2023-04-18T13:55:16.123Z,11.50
2023-04-18T13:57:42.982Z,11.40
2023-04-18T14:00:11.177Z,11.40
2023-04-18T14:02:38.199Z,11.40
2023-04-18T14:05:05.950Z,11.40
2023-04-18T14:07:33.064Z,11.30
2023-04-18T14:09:59.842Z,11.30
2023-04-18T14:12:26.902Z,11.30
2023-04-18T14:14:53.712Z,11.30
2023-04-18T14:17:20.585Z,11.30
2023-04-18T14:19:48.890Z,11.20
2023-04-18T14:22:15.851Z,11.30
2023-04-18T14:24:42.802Z,11.30
2023-04-18T14:27:09.655Z,11.20
2023-04-18T14:29:36.565Z,11.20
2023-04-18T14:32:03.768Z,11.30
2023-04-18T14:34:32.004Z,11.20
2023-04-18T14:37:00.596Z,11.20
2023-04-18T14:39:27.363Z,11.10
2023-04-18T14:41:54.855Z,11.10
2023-04-18T14:44:21.742Z,11.00
2023-04-18T14:46:48.683Z,11.10
2023-04-18T14:49:15.635Z,11.20
2023-04-18T14:51:42.588Z,11.30
2023-04-18T14:54:09.904Z,11.20
2023-04-18T14:56:36.760Z,11.20
2023-04-18T14:59:03.843Z,11.20
2023-04-18T15:01:30.753Z,11.10
2023-04-18T15:03:57.755Z,11.10
2023-04-18T15:06:24.697Z,11.20
2023-04-18T15:08:52.445Z,11.10
2023-04-18T15:11:19.343Z,11.10
2023-04-18T15:13:47.592Z,11.10
2023-04-18T15:16:14.506Z,10.90
2023-04-18T15:18:41.614Z,10.80
2023-04-18T15:21:08.404Z,10.80
2023-04-18T15:23:35.249Z,10.80
2023-04-18T15:26:02.258Z,10.90
2023-04-18T15:28:29.414Z,10.80
2023-04-18T15:30:56.197Z,10.80
2023-04-18T15:33:25.131Z,10.90
2023-04-18T15:35:52.137Z,10.90
2023-04-18T15:38:19.152Z,10.90
2023-04-18T15:40:46.059Z,10.80
2023-04-18T15:43:13.794Z,10.80
2023-04-18T15:45:40.838Z,10.90
2023-04-18T15:48:07.750Z,10.90
2023-04-18T15:50:34.584Z,11.00
2023-04-18T15:53:01.942Z,11.10
2023-04-18T15:55:28.820Z,11.00
2023-04-18T15:57:55.783Z,11.00
2023-04-18T16:00:23.363Z,11.00
2023-04-18T16:02:50.247Z,11.00
2023-04-18T16:05:17.490Z,11.00
2023-04-18T16:07:44.438Z,11.10
2023-04-18T16:10:12.824Z,11.20
2023-04-18T16:12:39.844Z,11.30
2023-04-18T16:15:08.659Z,11.50
2023-04-18T16:17:38.768Z,11.70
2023-04-18T16:20:06.371Z,11.80
2023-04-18T16:22:33.535Z,11.80
2023-04-18T16:25:00.434Z,11.80
2023-04-18T16:27:27.353Z,11.60
2023-04-18T16:29:54.393Z,11.60
2023-04-18T16:32:21.378Z,11.50
2023-04-18T16:34:48.554Z,11.40
2023-04-18T16:37:15.532Z,11.30
2023-04-18T16:39:42.681Z,11.30
2023-04-18T16:42:09.568Z,11.30
2023-04-18T16:44:36.380Z,11.20
2023-04-18T16:47:05.162Z,11.30
2023-04-18T16:49:32.031Z,11.40
2023-04-18T16:51:58.821Z,11.40
2023-04-18T16:54:25.638Z,11.30
2023-04-18T16:56:52.506Z,11.20
2023-04-18T16:59:19.486Z,11.20
2023-04-18T17:01:46.546Z,11.20
2023-04-18T17:04:14.688Z,11.20
2023-04-18T17:06:43.532Z,11.10
2023-04-18T17:09:13.404Z,11.10
2023-04-18T17:11:41.392Z,11.20
2023-04-18T17:14:08.640Z,11.20
2023-04-18T17:16:37.849Z,11.30
2023-04-18T17:19:04.927Z,11.50
2023-04-18T17:21:32.569Z,11.70
2023-04-18T17:24:03.763Z,11.80
2023-04-18T17:26:31.246Z,11.80
2023-04-18T17:28:58.238Z,11.60
2023-04-18T17:31:25.236Z,11.50
2023-04-18T17:33:52.168Z,11.50
2023-04-18T17:36:19.214Z,11.40
2023-04-18T17:38:49.002Z,11.40
2023-04-18T17:41:16.949Z,11.30
2023-04-18T17:43:44.612Z,11.20
2023-04-18T17:46:12.909Z,11.20
2023-04-18T17:48:41.332Z,11.10
2023-04-18T17:51:08.321Z,11.00
2023-04-18T17:53:35.354Z,11.00
2023-04-18T17:56:03.547Z,11.00
2023-04-18T17:58:30.568Z,11.00
2023-04-18T18:00:57.514Z,11.00
2023-04-18T18:03:24.759Z,11.00
2023-04-18T18:05:52.440Z,10.90
2023-04-18T18:08:19.304Z,10.90
2023-04-18T18:10:47.135Z,10.90
2023-04-18T18:13:14.186Z,10.80
2023-04-18T18:15:41.102Z,10.80
2023-04-18T18:18:08.132Z,10.80
2023-04-18T18:20:35.228Z,10.90
2023-04-18T18:23:02.809Z,10.90
2023-04-18T18:25:29.903Z,10.80
2023-04-18T18:27:56.988Z,10.80
2023-04-18T18:30:23.989Z,10.80
2023-04-18T18:32:51.282Z,10.80
2023-04-18T18:35:18.406Z,10.80
2023-04-18T18:37:45.272Z,10.70
2023-04-18T18:40:13.068Z,10.60
2023-04-18T18:42:40.076Z,10.50
2023-04-18T18:45:07.811Z,10.40
2023-04-18T18:47:36.300Z,10.40
2023-04-18T18:50:04.601Z,10.30
2023-04-18T18:52:32.765Z,10.20
2023-04-18T18:55:01.186Z,10.10
2023-04-18T18:57:28.227Z,10.00
2023-04-18T18:59:55.941Z,9.90
2023-04-18T19:02:23.135Z,9.80
2023-04-18T19:04:50.305Z,9.70
2023-04-18T19:07:17.332Z,9.70
2023-04-18T19:09:46.491Z,9.70
2023-04-18T19:12:13.402Z,9.60
2023-04-18T19:14:42.275Z,9.60
2023-04-18T19:17:09.400Z,9.50
2023-04-18T19:19:36.516Z,9.50
2023-04-18T19:22:03.452Z,9.50
2023-04-18T19:24:32.076Z,9.40
2023-04-18T19:26:59.769Z,9.40
2023-04-18T19:29:29.187Z,9.30
2023-04-18T19:31:57.666Z,9.30
2023-04-18T19:34:24.676Z,9.30
2023-04-18T19:36:51.609Z,9.20
2023-04-18T19:39:18.568Z,9.20
2023-04-18T19:41:46.118Z,9.20
2023-04-18T19:44:13.064Z,9.20
2023-04-18T19:46:40.172Z,9.20
2023-04-18T19:49:07.301Z,9.10
2023-04-18T19:51:34.281Z,9.10
2023-04-18T19:54:01.301Z,9.10
2023-04-18T19:56:28.228Z,9.00
2023-04-18T19:58:55.406Z,9.10
2023-04-18T20:01:23.717Z,9.10
2023-04-18T20:03:50.988Z,9.10
2023-04-18T20:06:18.175Z,9.20
2023-04-18T20:08:46.255Z,9.20
2023-04-18T20:11:14.278Z,9.30
2023-04-18T20:13:41.660Z,9.40
2023-04-18T20:16:09.185Z,9.40
2023-04-18T20:18:37.797Z,9.50
2023-04-18T20:21:06.515Z,9.50
2023-04-18T20:23:34.080Z,9.50
2023-04-18T20:26:01.545Z,9.60
2023-04-18T20:28:28.407Z,9.60
2023-04-18T20:30:55.778Z,9.60
2023-04-18T20:33:22.595Z,9.60
2023-04-18T20:35:49.408Z,9.60
2023-04-18T20:38:16.486Z,9.60
2023-04-18T20:40:45.017Z,9.60
2023-04-18T20:43:14.061Z,9.70
2023-04-18T20:45:43.008Z,9.70
2023-04-18T20:48:10.379Z,9.70
2023-04-18T20:50:40.069Z,9.70
2023-04-18T20:53:07.290Z,9.70
2023-04-18T20:55:34.333Z,9.70
2023-04-18T20:58:01.387Z,9.80
2023-04-18T21:00:28.611Z,9.80
2023-04-18T21:02:55.720Z,9.80
2023-04-18T21:05:22.850Z,9.80
2023-04-18T21:07:49.945Z,9.80
2023-04-18T21:10:17.002Z,9.80
2023-04-18T21:12:45.135Z,9.90
2023-04-18T21:15:12.658Z,9.80
2023-04-18T21:17:39.801Z,9.90
2023-04-18T21:20:08.192Z,9.90
2023-04-18T21:22:35.275Z,9.90
2023-04-18T21:25:02.927Z,10.00
2023-04-18T21:27:30.419Z,10.00
2023-04-18T21:29:57.325Z,10.00
2023-04-18T21:32:24.670Z,10.00
2023-04-18T21:34:51.751Z,10.00
2023-04-18T21:37:18.681Z,9.90
2023-04-18T21:39:45.719Z,10.00
2023-04-18T21:42:12.799Z,10.00
2023-04-18T21:44:39.692Z,10.00
2023-04-18T21:47:06.742Z,9.90
2023-04-18T21:49:33.718Z,10.00
2023-04-18T21:52:00.787Z,10.00
2023-04-18T21:54:27.693Z,10.00
2023-04-18T21:56:55.253Z,10.00
2023-04-18T21:59:22.138Z,10.00
2023-04-18T22:01:48.988Z,10.00
2023-04-18T22:04:17.148Z,10.00
2023-04-18T22:06:44.349Z,10.10
2023-04-18T22:09:12.307Z,10.00
2023-04-18T22:11:39.245Z,10.00
2023-04-18T22:14:06.236Z,10.10
2023-04-18T22:16:33.515Z,10.10
2023-04-18T22:19:01.423Z,10.00
2023-04-18T22:21:28.339Z,10.00
2023-04-18T22:23:55.529Z,9.90
2023-04-18T22:26:22.437Z,9.90
2023-04-18T22:28:49.531Z,9.90
2023-04-18T22:31:16.477Z,9.80
2023-04-18T22:33:43.342Z,9.70
2023-04-18T22:36:10.314Z,9.70
2023-04-18T22:38:37.347Z,9.60
2023-04-18T22:41:04.240Z,9.60
2023-04-18T22:43:32.714Z,9.60
2023-04-18T22:45:59.658Z,9.50
2023-04-18T22:48:26.584Z,9.50
2023-04-18T22:50:53.627Z,9.40
2023-04-18T22:53:20.554Z,9.40
2023-04-18T22:55:47.606Z,9.40
2023-04-18T22:58:14.523Z,9.30
2023-04-18T23:00:41.488Z,9.30
2023-04-18T23:03:08.611Z,9.30
2023-04-18T23:05:35.655Z,9.20
2023-04-18T23:08:02.686Z,9.20
2023-04-18T23:10:29.682Z,9.20
2023-04-18T23:12:56.588Z,9.10
2023-04-18T23:15:23.495Z,9.10
2023-04-18T23:17:53.775Z,9.10
2023-04-18T23:20:21.186Z,9.10
2023-04-18T23:22:51.453Z,9.00
2023-04-18T23:25:20.079Z,9.00
2023-04-18T23:27:47.347Z,8.90
2023-04-18T23:30:14.264Z,8.90
2023-04-18T23:32:41.204Z,8.90
2023-04-18T23:35:08.461Z,8.90
2023-04-18T23:37:35.430Z,8.90
2023-04-18T23:40:04.169Z,8.90
2023-04-18T23:42:34.671Z,8.80
2023-04-18T23:45:01.868Z,8.80
2023-04-18T23:47:28.761Z,8.80
2023-04-18T23:49:55.795Z,8.80
2023-04-18T23:52:22.894Z,8.80
2023-04-18T23:54:49.699Z,8.80
2023-04-18T23:57:16.613Z,8.80
2023-04-18T23:59:43.471Z,8.70
